Time;durP1;ratioP1;P1;durP2;ratioP2;P2;SDS_P1;SDS_P2;PMS_P1;PMS_P2;Temp;Humidity;BMP_temperature;BMP_pressure;BME280_temperature;BME280_humidity;BME280_pressure;Samples;Min_cycle;Max_cycle;Signal;HPM_P1;HPM_P2
2021/07/12 00:00:30;;;;;;;9.63;8.02;;;;;;;0.01;0.00;59042.03;10317708;28;20060;-59
2021/07/12 00:05:31;;;;;;;11.75;8.45;;;;;;;0.01;0.00;59042.03;10317462;28;20083;-59
2021/07/12 00:10:30;;;;;;;8.73;7.45;;;;;;;0.01;0.00;59042.03;10318007;28;20076;-59
2021/07/12 00:15:30;;;;;;;8.48;7.45;;;;;;;0.01;0.00;59042.03;10317190;28;20040;-59
2021/07/12 00:20:30;;;;;;;8.77;7.95;;;;;;;0.01;0.00;59042.03;10316408;28;20045;-59
2021/07/12 00:25:30;;;;;;;9.15;7.40;;;;;;;0.01;0.00;59042.03;10316928;28;20083;-58
2021/07/12 00:30:30;;;;;;;8.05;7.10;;;;;;;0.01;0.00;59042.03;10317313;28;20525;-59
2021/07/12 00:35:30;;;;;;;10.38;8.20;;;;;;;0.01;0.00;59042.03;10317128;28;20059;-59
2021/07/12 00:40:31;;;;;;;11.05;9.50;;;;;;;0.01;0.00;59042.03;10317289;28;20049;-57
2021/07/12 00:45:31;;;;;;;8.98;8.07;;;;;;;0.01;0.00;59042.03;10316331;28;20528;-57
2021/07/12 00:50:34;;;;;;;10.77;8.55;;;;;;;0.01;0.00;59042.03;10316592;28;20056;-57
2021/07/12 00:55:36;;;;;;;8.57;7.77;;;;;;;0.01;0.00;59042.03;10315951;28;20044;-57
2021/07/12 01:00:35;;;;;;;9.20;8.38;;;;;;;0.01;0.00;59042.03;10315434;28;20494;-57
2021/07/12 01:05:37;;;;;;;9.05;8.15;;;;;;;0.01;0.00;59042.03;10315783;28;20103;-57
2021/07/12 01:10:37;;;;;;;9.00;8.10;;;;;;;0.01;0.00;59042.03;10315665;28;20052;-57
2021/07/12 01:15:43;;;;;;;8.07;7.32;;;;;;;0.01;0.00;59042.03;10297512;28;20040;-57
2021/07/12 01:21:29;;;;;;;9.38;7.32;;;;;;;0.01;0.00;59042.03;10297878;28;20513;-57
2021/07/12 01:27:11;;;;;;;11.13;8.05;;;;;;;0.01;0.00;59042.03;10315507;28;20048;-58
2021/07/12 01:32:50;;;;;;;8.38;7.57;;;;;;;0.01;0.00;59042.03;10303799;28;20045;-57
2021/07/12 01:38:07;;;;;;;8.52;7.72;;;;;;;0.01;0.00;59042.03;10306074;28;20047;-57
2021/07/12 01:43:18;;;;;;;10.57;8.05;;;;;;;0.01;0.00;59042.03;10305859;28;20044;-57
2021/07/12 01:48:28;;;;;;;8.60;7.78;;;;;;;0.01;0.00;59042.03;10281548;28;20052;-58
2021/07/12 01:53:35;;;;;;;9.80;8.10;;;;;;;0.01;0.00;59042.03;10281547;28;20521;-58
2021/07/12 01:58:39;;;;;;;8.80;7.90;;;;;;;0.01;0.00;59042.03;10281378;28;20503;-57
2021/07/12 02:03:41;;;;;;;10.50;8.18;;;;;;;0.01;0.00;59042.03;10281002;28;20056;-58
2021/07/12 02:08:46;;;;;;;9.68;7.50;;;;;;;0.01;0.00;59042.03;10282300;28;20494;-57
2021/07/12 02:13:51;;;;;;;10.50;7.63;;;;;;;0.01;0.00;59042.03;10282814;28;20479;-57
2021/07/12 02:18:57;;;;;;;10.70;8.20;;;;;;;0.01;0.00;59042.03;10282076;28;20494;-58
2021/07/12 02:24:21;;;;;;;10.50;7.53;;;;;;;0.01;0.00;59042.03;10275228;28;20088;-54
2021/07/12 02:29:20;;;;;;;12.60;7.75;;;;;;;0.01;0.00;59042.03;10280169;28;20045;-57
2021/07/12 02:34:24;;;;;;;9.40;7.80;;;;;;;0.01;0.00;59042.03;10280030;28;20422;-57
2021/07/12 02:39:27;;;;;;;11.18;7.25;;;;;;;0.01;0.00;59042.03;10281979;28;20040;-58
2021/07/12 02:44:28;;;;;;;9.85;8.38;;;;;;;0.01;0.00;59042.03;10286021;28;20422;-57
2021/07/12 02:49:29;;;;;;;8.57;7.78;;;;;;;0.01;0.00;59042.03;10303593;28;20438;-58
2021/07/12 02:54:34;;;;;;;9.00;8.10;;;;;;;0.01;0.00;59042.03;10302318;28;20426;-58
2021/07/12 02:59:38;;;;;;;12.35;8.32;;;;;;;0.01;0.00;59042.03;10302775;28;20059;-57
2021/07/12 03:04:40;;;;;;;10.77;7.95;;;;;;;0.01;0.00;59042.03;10320182;28;20068;-57
2021/07/12 03:09:44;;;;;;;11.77;8.27;;;;;;;0.01;0.00;59042.03;10301443;28;20055;-57
2021/07/12 03:14:48;;;;;;;8.73;7.93;;;;;;;0.01;0.00;59042.03;10299386;28;20072;-58
2021/07/12 03:19:54;;;;;;;9.40;8.20;;;;;;;0.01;0.00;59042.03;10290014;28;20044;-58
2021/07/12 03:24:57;;;;;;;8.32;7.50;;;;;;;0.01;0.00;59042.03;10316172;28;20087;-50
2021/07/12 03:30:00;;;;;;;11.63;7.85;;;;;;;0.01;0.00;59042.03;10298327;28;20063;-58
2021/07/12 03:35:10;;;;;;;16.95;9.73;;;;;;;0.01;0.00;59042.03;10297462;28;20075;-55
2021/07/12 03:40:10;;;;;;;15.63;10.48;;;;;;;0.01;0.00;59042.03;10313009;28;20514;-57
2021/07/12 03:45:16;;;;;;;15.55;10.65;;;;;;;0.01;0.00;59042.03;10298862;28;20106;-57
2021/07/12 03:50:19;;;;;;;12.85;10.85;;;;;;;0.01;0.00;59042.03;10318306;28;20053;-58
2021/07/12 03:55:22;;;;;;;14.68;10.65;;;;;;;0.01;0.00;59042.03;10299507;28;20044;-57
2021/07/12 04:00:23;;;;;;;13.85;11.13;;;;;;;0.01;0.00;59042.03;10317599;28;20051;-57
2021/07/12 04:05:26;;;;;;;14.32;11.60;;;;;;;0.01;0.00;59042.03;10317226;28;20087;-56
2021/07/12 04:10:26;;;;;;;14.13;11.60;;;;;;;0.01;0.00;59042.03;10317885;28;20091;-57
2021/07/12 04:15:26;;;;;;;12.80;11.48;;;;;;;0.01;0.00;59042.03;10317761;28;20568;-57
2021/07/12 04:20:26;;;;;;;19.35;12.98;;;;;;;0.01;0.00;59042.03;10316710;28;20041;-57
2021/07/12 04:25:24;;;;;;;21.13;15.88;;;;;;;0.01;0.00;59042.03;10316474;28;20517;-57
2021/07/12 04:30:23;;;;;;;13.88;11.00;;;;;;;0.01;0.00;59042.03;10317164;28;20396;-56
2021/07/12 04:35:22;;;;;;;16.58;10.82;;;;;;;0.01;0.00;59042.03;10314982;28;20056;-57
2021/07/12 04:40:22;;;;;;;20.05;13.07;;;;;;;0.01;0.00;59042.03;10312583;28;20075;-57
2021/07/12 04:45:25;;;;;;;17.42;12.38;;;;;;;0.01;0.00;59042.03;10311209;28;20478;-57
2021/07/12 04:50:24;;;;;;;16.80;11.77;;;;;;;0.01;0.00;59042.03;10312100;28;20076;-57
2021/07/12 04:55:24;;;;;;;14.25;11.95;;;;;;;0.01;0.00;59042.03;10316385;28;20043;-56
2021/07/12 05:00:26;;;;;;;17.17;12.60;;;;;;;0.01;0.00;59042.03;10316016;28;20049;-57
2021/07/12 05:05:25;;;;;;;16.95;13.63;;;;;;;0.01;0.00;59042.03;10315319;28;20076;-58
2021/07/12 05:10:25;;;;;;;17.80;13.60;;;;;;;0.01;0.00;59042.03;10315856;28;20044;-58
2021/07/12 05:15:24;;;;;;;20.35;13.52;;;;;;;0.01;0.00;59042.03;10315986;28;20051;-58
2021/07/12 05:20:23;;;;;;;21.58;14.32;;;;;;;0.01;0.00;59042.03;10314897;28;20040;-58
2021/07/12 05:25:22;;;;;;;19.17;16.33;;;;;;;0.01;0.00;59042.03;10315138;28;20083;-58
2021/07/12 05:30:24;;;;;;;17.73;15.80;;;;;;;0.01;0.00;59042.03;10315023;28;20079;-57
2021/07/12 05:35:22;;;;;;;16.95;15.35;;;;;;;0.01;0.00;59042.03;10315413;28;20048;-57
2021/07/12 05:40:21;;;;;;;19.58;15.70;;;;;;;0.01;0.00;59042.03;10315496;28;20045;-57
2021/07/12 05:45:20;;;;;;;17.88;16.05;;;;;;;0.01;0.00;59042.03;10315240;28;20080;-58
2021/07/12 05:50:20;;;;;;;18.30;16.35;;;;;;;0.01;0.00;59042.03;10315165;28;20071;-58
2021/07/12 05:55:19;;;;;;;20.73;15.65;;;;;;;0.01;0.00;59042.03;10296462;28;20064;-58
2021/07/12 06:00:18;;;;;;;19.52;13.75;;;;;;;0.01;0.00;59042.03;10314406;28;20044;-58
2021/07/12 06:05:17;;;;;;;14.40;12.77;;;;;;;0.01;0.00;59042.03;10314575;28;20102;-58
2021/07/12 06:10:17;;;;;;;20.58;13.43;;;;;;;0.01;0.00;59042.03;10296474;28;20052;-58
2021/07/12 06:15:16;;;;;;;22.05;13.25;;;;;;;0.01;0.00;59042.03;10314388;28;20052;-58
2021/07/12 06:20:18;;;;;;;27.35;14.73;;;;;;;0.01;0.00;59042.03;10321220;28;20048;-58
2021/07/12 06:25:20;;;;;;;15.40;13.80;;;;;;;0.01;0.00;59042.03;10321702;28;20090;-57
2021/07/12 06:30:20;;;;;;;14.57;11.88;;;;;;;0.01;0.00;59042.03;10321592;28;20049;-58
2021/07/12 06:35:19;;;;;;;16.08;12.27;;;;;;;0.01;0.00;59042.03;10321336;28;20083;-58
2021/07/12 06:40:19;;;;;;;13.25;11.20;;;;;;;0.01;0.00;59042.03;10321051;28;20059;-58
2021/07/12 06:45:18;;;;;;;18.48;11.85;;;;;;;0.01;0.00;59042.03;10320254;28;20092;-58
2021/07/12 06:50:17;;;;;;;20.52;11.13;;;;;;;0.01;0.00;59042.03;10320532;28;20162;-58
2021/07/12 06:55:16;;;;;;;16.17;11.45;;;;;;;0.01;0.00;59042.03;10320386;28;20091;-58
2021/07/12 07:00:17;;;;;;;18.23;11.65;;;;;;;0.01;0.00;59042.03;10320329;28;20044;-58
2021/07/12 07:05:34;;;;;;;12.85;9.13;;;;;;;0.01;0.00;59042.03;10319858;28;20092;-58
2021/07/12 07:10:52;;;;;;;11.20;10.00;;;;;;;0.01;0.00;59042.03;10320422;28;20060;-58
2021/07/12 07:15:53;;;;;;;12.50;10.73;;;;;;;0.01;0.00;59042.03;10319898;28;20501;-58
2021/07/12 07:20:52;;;;;;;10.98;9.57;;;;;;;0.01;0.00;59042.03;10318820;28;20493;-53
2021/07/12 07:25:51;;;;;;;15.75;10.40;;;;;;;0.01;0.00;59042.03;10301422;28;20044;-51
2021/07/12 07:30:50;;;;;;;9.57;8.68;;;;;;;0.01;0.00;59042.03;10318087;28;20060;-52
2021/07/12 07:35:50;;;;;;;16.42;10.35;;;;;;;0.01;0.00;59042.03;10319303;28;20419;-54
2021/07/12 07:40:49;;;;;;;17.38;10.90;;;;;;;0.01;0.00;59042.03;10318789;28;20491;-54
2021/07/12 07:45:48;;;;;;;21.48;11.65;;;;;;;0.01;0.00;59042.03;10317748;28;20056;-51
2021/07/12 07:50:47;;;;;;;20.98;12.60;;;;;;;0.01;0.00;59042.03;10318461;28;20074;-55
2021/07/12 07:55:47;;;;;;;20.75;11.15;;;;;;;0.01;0.00;59042.03;10317770;28;20044;-53
2021/07/12 08:00:46;;;;;;;21.75;11.80;;;;;;;0.01;0.00;59042.03;10317925;28;20497;-52
2021/07/12 08:05:44;;;;;;;15.65;11.18;;;;;;;0.01;0.00;59042.03;10317722;28;20516;-53
2021/07/12 08:10:43;;;;;;;16.77;11.75;;;;;;;0.01;0.00;59042.03;10317519;28;20668;-55
2021/07/12 08:15:43;;;;;;;19.90;11.38;;;;;;;0.01;0.00;59042.03;10316517;28;20510;-53
2021/07/12 08:20:45;;;;;;;18.00;11.20;;;;;;;0.01;0.00;59042.03;10317196;28;20045;-53
2021/07/12 08:25:43;;;;;;;15.98;11.40;;;;;;;0.01;0.00;59042.03;10298848;28;20531;-54
2021/07/12 08:30:44;;;;;;;16.55;9.65;;;;;;;0.01;0.00;59042.03;10316088;28;20045;-50
2021/07/12 08:35:43;;;;;;;18.05;11.40;;;;;;;0.01;0.00;59042.03;10316519;28;20525;-55
2021/07/12 08:40:41;;;;;;;14.48;9.60;;;;;;;0.01;0.00;59042.03;10315630;28;20048;-51
2021/07/12 08:45:45;;;;;;;14.05;9.88;;;;;;;0.01;0.00;59042.03;10315969;28;20273;-52
2021/07/12 08:50:45;;;;;;;11.57;8.38;;;;;;;0.01;0.00;59042.03;10316233;28;20063;-48
2021/07/12 08:55:44;;;;;;;12.50;8.15;;;;;;;0.01;0.00;59042.03;10315176;28;20048;-52
2021/07/12 09:00:47;;;;;;;9.60;7.53;;;;;;;0.01;0.00;59042.03;10316886;28;20048;-52
2021/07/12 09:06:00;;;;;;;11.63;8.00;;;;;;;0.01;0.00;59042.03;10316140;28;20072;-50
2021/07/12 09:11:06;;;;;;;8.77;7.80;;;;;;;0.01;0.00;59042.03;10316085;28;20040;-54
2021/07/12 09:16:26;;;;;;;14.82;7.82;;;;;;;0.01;0.00;59042.03;10316107;28;20085;-52
2021/07/12 09:21:25;;;;;;;16.15;8.68;;;;;;;0.01;0.00;59042.03;10315899;28;20452;-51
2021/07/12 09:26:24;;;;;;;11.43;8.45;;;;;;;0.01;0.00;59042.03;10315181;28;20521;-50
2021/07/12 09:31:27;;;;;;;11.02;8.20;;;;;;;0.01;0.00;59042.03;10315279;28;20044;-54
2021/07/12 09:36:26;;;;;;;11.50;8.02;;;;;;;0.01;0.00;59042.03;10314787;28;20086;-49
2021/07/12 09:41:29;;;;;;;12.48;8.00;;;;;;;0.01;0.00;59042.03;10315557;28;20048;-49
2021/07/12 09:46:32;;;;;;;11.93;8.17;;;;;;;0.01;0.00;59042.03;10314664;28;20502;-50
2021/07/12 09:51:33;;;;;;;;;;;;;;;0.01;0.00;59042.03;10317140;28;20048;-51
2021/07/12 09:56:31;;;;;;;11.70;8.25;;;;;;;0.01;0.00;59042.03;10322983;28;19967;-55
2021/07/12 10:01:32;;;;;;;9.10;7.60;;;;;;;0.01;0.00;59042.03;10322063;28;20047;-51
2021/07/12 10:06:30;;;;;;;12.57;7.65;;;;;;;0.01;0.00;59042.03;10323291;28;20163;-52
2021/07/12 10:11:31;;;;;;;11.95;7.10;;;;;;;0.01;0.00;59042.03;10322418;28;20045;-54
2021/07/12 10:16:32;;;;;;;7.95;7.25;;;;;;;0.01;0.00;59042.03;10322581;28;20041;-51
2021/07/12 10:21:39;;;;;;;9.25;6.00;;;;;;;0.01;0.00;59042.03;10321655;28;20052;-53
2021/07/12 10:26:50;;;;;;;9.48;7.15;;;;;;;0.01;0.00;59042.03;10322037;28;20079;-48
2021/07/12 10:31:59;;;;;;;9.27;6.15;;;;;;;0.01;0.00;59042.03;10320930;28;20044;-52
2021/07/12 10:37:00;;;;;;;8.73;6.30;;;;;;;0.01;0.00;59042.03;10321169;28;20521;-53
2021/07/12 10:41:59;;;;;;;8.23;6.93;;;;;;;0.01;0.00;59042.03;10321654;28;20072;-55
2021/07/12 10:46:59;;;;;;;8.43;6.97;;;;;;;0.01;0.00;59042.03;10320523;28;20093;-53
2021/07/12 10:51:57;;;;;;;8.05;6.43;;;;;;;0.01;0.00;59042.03;10321346;28;20044;-55
2021/07/12 10:56:58;;;;;;;10.57;6.93;;;;;;;0.01;0.00;59042.03;10321182;28;20040;-54
2021/07/12 11:01:59;;;;;;;12.77;6.65;;;;;;;0.01;0.00;59042.03;10319814;28;20045;-53
2021/07/12 11:06:59;;;;;;;11.10;6.82;;;;;;;0.01;0.00;59042.03;10319161;28;20080;-58
2021/07/12 11:11:58;;;;;;;9.73;6.22;;;;;;;0.01;0.00;59042.03;10318795;28;20084;-58
2021/07/12 11:16:57;;;;;;;10.45;6.47;;;;;;;0.01;0.00;59042.03;10319992;28;20052;-58
2021/07/12 11:22:24;;;;;;;11.90;5.90;;;;;;;0.01;0.00;59042.03;10319191;28;20068;-58
2021/07/12 11:27:35;;;;;;;16.50;8.05;;;;;;;0.01;0.00;59042.03;10319540;28;20080;-58
2021/07/12 11:32:37;;;;;;;13.63;7.50;;;;;;;0.01;0.00;59042.03;10319950;28;20482;-58
2021/07/12 11:37:37;;;;;;;13.35;6.40;;;;;;;0.01;0.00;59042.03;10318059;28;20052;-59
2021/07/12 11:42:39;;;;;;;10.50;6.00;;;;;;;0.01;0.00;59042.03;10319078;28;20044;-58
2021/07/12 11:47:39;;;;;;;10.95;5.90;;;;;;;0.01;0.00;59042.03;10318595;28;20461;-59
2021/07/12 11:52:41;;;;;;;16.92;6.20;;;;;;;0.01;0.00;59042.03;10318457;28;20151;-59
2021/07/12 11:57:41;;;;;;;7.22;5.72;;;;;;;0.01;0.00;59042.03;10318778;28;20049;-58
2021/07/12 12:02:40;;;;;;;11.20;6.22;;;;;;;0.01;0.00;59042.03;10318537;28;20407;-58
2021/07/12 12:07:42;;;;;;;7.88;6.40;;;;;;;0.01;0.00;59042.03;10318407;28;20080;-59
2021/07/12 12:12:44;;;;;;;8.85;6.28;;;;;;;0.01;0.00;59042.03;10317931;28;20045;-58
2021/07/12 12:17:53;;;;;;;10.50;7.75;;;;;;;0.01;0.00;59042.03;10317253;28;20482;-59
2021/07/12 12:23:02;;;;;;;8.38;6.22;;;;;;;0.01;0.00;59042.03;10317927;28;20087;-59
2021/07/12 12:28:00;;;;;;;7.80;5.88;;;;;;;0.01;0.00;59042.03;10317948;28;20088;-58
2021/07/12 12:33:01;;;;;;;8.02;6.85;;;;;;;0.01;0.00;59042.03;10316939;28;20508;-59
2021/07/12 12:38:13;;;;;;;8.20;6.55;;;;;;;0.01;0.00;59042.03;10317331;28;20044;-59
2021/07/12 12:43:14;;;;;;;13.88;7.35;;;;;;;0.01;0.00;59042.03;10317057;28;20097;-59
2021/07/12 12:48:29;;;;;;;12.93;6.53;;;;;;;0.01;0.00;59042.03;10316775;28;20111;-58
2021/07/12 12:53:33;;;;;;;10.60;7.18;;;;;;;0.01;0.00;59042.03;10316621;28;20087;-58
2021/07/12 12:58:32;;;;;;;10.70;7.00;;;;;;;0.01;0.00;59042.03;10316153;28;20044;-58
2021/07/12 13:03:30;;;;;;;8.90;5.97;;;;;;;0.01;0.00;59042.03;10316153;28;20032;-59
2021/07/12 13:08:30;;;;;;;9.85;6.57;;;;;;;0.01;0.00;59042.03;10316812;28;20083;-58
2021/07/12 13:13:31;;;;;;;8.88;5.97;;;;;;;0.01;0.00;59042.03;10298053;28;20045;-58
2021/07/12 13:18:32;;;;;;;10.70;6.63;;;;;;;0.01;0.00;59042.03;10315866;28;20474;-59
2021/07/12 13:23:30;;;;;;;11.45;6.85;;;;;;;0.01;0.00;59042.03;10316300;28;20048;-59
2021/07/12 13:28:30;;;;;;;7.40;6.25;;;;;;;0.01;0.00;59042.03;10324282;28;20503;-58
2021/07/12 13:33:30;;;;;;;13.07;7.47;;;;;;;0.01;0.00;59042.03;10324967;28;20474;-58
2021/07/12 13:38:29;;;;;;;8.73;6.38;;;;;;;0.01;0.00;59042.03;10323705;28;20055;-58
2021/07/12 13:43:28;;;;;;;19.02;7.22;;;;;;;0.01;0.00;59042.03;10323283;28;20410;-58
2021/07/12 13:48:28;;;;;;;9.30;6.93;;;;;;;0.01;0.00;59042.03;10322830;28;20091;-58
2021/07/12 13:53:27;;;;;;;9.55;7.43;;;;;;;0.01;0.00;59042.03;10324000;28;20041;-58
2021/07/12 13:58:28;;;;;;;9.95;7.05;;;;;;;0.01;0.00;59042.03;10323126;28;20063;-58
2021/07/12 14:03:29;;;;;;;12.98;7.88;;;;;;;0.01;0.00;59042.03;10323532;28;20040;-58
2021/07/12 14:08:28;;;;;;;8.65;7.35;;;;;;;0.01;0.00;59042.03;10322533;28;20083;-58
2021/07/12 14:13:27;;;;;;;14.77;7.13;;;;;;;0.01;0.00;59042.03;10323425;28;20036;-59
2021/07/12 14:18:28;;;;;;;10.52;6.68;;;;;;;0.01;0.00;59042.03;10318566;28;20515;-55
2021/07/12 14:23:27;;;;;;;11.02;7.22;;;;;;;0.01;0.00;59042.03;10318495;28;20083;-58
2021/07/12 14:28:26;;;;;;;12.07;6.20;;;;;;;0.01;0.00;59042.03;10320738;28;20091;-58
2021/07/12 14:33:25;;;;;;;9.32;6.80;;;;;;;0.01;0.00;59042.03;10310635;28;20064;-52
2021/07/12 14:38:26;;;;;;;7.88;5.80;;;;;;;0.01;0.00;59042.03;10319032;28;20060;-58
2021/07/12 14:43:24;;;;;;;7.43;6.00;;;;;;;0.01;0.00;59042.03;10310257;28;20079;-54
2021/07/12 14:48:23;;;;;;;9.07;6.90;;;;;;;0.01;0.00;59042.03;10319462;28;20087;-56
2021/07/12 14:53:22;;;;;;;9.43;8.48;;;;;;;0.01;0.00;59042.03;10312514;28;20082;-58
2021/07/12 14:58:22;;;;;;;13.52;9.07;;;;;;;0.01;0.00;59042.03;10311426;28;20076;-57
2021/07/12 15:03:21;;;;;;;10.25;8.32;;;;;;;0.01;0.00;59042.03;10300455;28;20056;-58
2021/07/12 15:08:20;;;;;;;19.63;7.82;;;;;;;0.01;0.00;59042.03;10315405;28;20489;-57
2021/07/12 15:13:19;;;;;;;15.63;8.45;;;;;;;0.01;0.00;59042.03;10318351;28;20072;-56
2021/07/12 15:18:19;;;;;;;12.45;7.18;;;;;;;0.01;0.00;59042.03;10317851;28;20103;-58
2021/07/12 15:23:18;;;;;;;11.02;8.43;;;;;;;0.01;0.00;59042.03;10319411;28;20045;-54
2021/07/12 15:28:19;;;;;;;9.68;7.30;;;;;;;0.01;0.00;59042.03;10318502;28;20044;-56
2021/07/12 15:33:20;;;;;;;7.50;6.68;;;;;;;0.01;0.00;59042.03;10318716;28;20044;-57
2021/07/12 15:38:19;;;;;;;8.55;7.68;;;;;;;0.01;0.00;59042.03;10316172;28;20419;-58
2021/07/12 15:43:19;;;;;;;12.23;7.20;;;;;;;0.01;0.00;59042.03;10313062;28;20087;-58
2021/07/12 15:48:20;;;;;;;10.10;7.28;;;;;;;0.01;0.00;59042.03;10314957;28;20498;-55
2021/07/12 15:53:19;;;;;;;12.57;6.70;;;;;;;0.01;0.00;59042.03;10314755;28;20048;-58
2021/07/12 15:58:18;;;;;;;7.60;6.90;;;;;;;0.01;0.00;59042.03;10316760;28;20079;-58
2021/07/12 16:03:16;;;;;;;10.35;7.75;;;;;;;0.01;0.00;59042.03;10318060;28;20059;-58
2021/07/12 16:08:16;;;;;;;11.32;7.82;;;;;;;0.01;0.00;59042.03;10314654;28;20060;-57
2021/07/12 16:13:15;;;;;;;11.35;7.13;;;;;;;0.01;0.00;59042.03;10316431;28;20032;-57
2021/07/12 16:18:16;;;;;;;8.35;7.22;;;;;;;0.01;0.00;59042.03;10316582;28;20067;-58
2021/07/12 16:23:16;;;;;;;9.93;6.82;;;;;;;0.01;0.00;59042.03;10313991;28;20518;-58
2021/07/12 16:28:14;;;;;;;7.70;6.90;;;;;;;0.01;0.00;59042.03;10316034;28;20467;-57
2021/07/12 16:33:13;;;;;;;9.10;6.80;;;;;;;0.01;0.00;59042.03;10312007;28;20099;-58
2021/07/12 16:38:12;;;;;;;10.02;5.32;;;;;;;0.01;0.00;59042.03;10315892;28;20450;-58
2021/07/12 16:43:13;;;;;;;14.07;7.00;;;;;;;0.01;0.00;59042.03;10317972;28;20048;-58
2021/07/12 16:48:12;;;;;;;9.95;7.43;;;;;;;0.01;0.00;59042.03;10315717;28;20532;-58
2021/07/12 16:53:10;;;;;;;7.25;6.55;;;;;;;0.01;0.00;59042.03;10317393;28;20474;-58
2021/07/12 16:58:09;;;;;;;11.15;6.78;;;;;;;0.01;0.00;59042.03;10316777;28;20044;-58
2021/07/12 17:03:09;;;;;;;8.57;6.40;;;;;;;0.01;0.00;59042.03;10316078;28;20052;-58
2021/07/12 17:08:08;;;;;;;9.35;6.25;;;;;;;0.01;0.00;59042.03;10317127;28;20087;-57
2021/07/12 17:13:07;;;;;;;11.73;6.80;;;;;;;0.01;0.00;59042.03;10316530;28;20079;-57
2021/07/12 17:18:07;;;;;;;14.63;6.65;;;;;;;0.01;0.00;59042.03;10315442;28;20505;-59
2021/07/12 17:23:07;;;;;;;15.68;8.80;;;;;;;0.01;0.00;59042.03;10316583;28;20040;-59
2021/07/12 17:28:07;;;;;;;10.80;7.38;;;;;;;0.01;0.00;59042.03;10315562;28;20510;-59
2021/07/12 17:33:05;;;;;;;13.57;10.90;;;;;;;0.01;0.00;59042.03;10316308;28;20560;-60
2021/07/12 17:38:04;;;;;;;12.68;9.00;;;;;;;0.01;0.00;59042.03;10313427;28;20522;-60
2021/07/12 17:43:05;;;;;;;16.55;8.13;;;;;;;0.01;0.00;59042.03;10307126;28;20467;-60
2021/07/12 17:48:04;;;;;;;10.55;9.45;;;;;;;0.01;0.00;59042.03;10304070;28;20084;-59
2021/07/12 17:53:06;;;;;;;19.13;10.75;;;;;;;0.01;0.00;59042.03;10307214;28;20044;-59
2021/07/12 17:58:07;;;;;;;13.05;9.32;;;;;;;0.01;0.00;59042.03;10313820;28;20572;-60
2021/07/12 18:03:05;;;;;;;15.07;10.23;;;;;;;0.01;0.00;59042.03;10277415;28;20083;-58
2021/07/12 18:08:05;;;;;;;9.60;8.38;;;;;;;0.01;0.00;59042.03;10311239;28;20472;-59
2021/07/12 18:13:04;;;;;;;13.93;9.07;;;;;;;0.01;0.00;59042.03;10317981;28;20048;-59
2021/07/12 18:18:05;;;;;;;13.93;8.48;;;;;;;0.01;0.00;59042.03;10312576;28;20091;-59
2021/07/12 18:23:04;;;;;;;14.18;8.73;;;;;;;0.01;0.00;59042.03;10323012;28;20040;-59
2021/07/12 18:28:03;;;;;;;10.45;8.82;;;;;;;0.01;0.00;59042.03;10320820;28;20457;-59
2021/07/12 18:33:02;;;;;;;12.38;9.05;;;;;;;0.01;0.00;59042.03;10321815;28;20442;-60
2021/07/12 18:38:03;;;;;;;19.38;9.50;;;;;;;0.01;0.00;59042.03;10321872;28;20060;-60
2021/07/12 18:43:03;;;;;;;12.77;8.32;;;;;;;0.01;0.00;59042.03;10321156;28;20045;-59
2021/07/12 18:48:03;;;;;;;10.63;8.02;;;;;;;0.01;0.00;59042.03;10322890;28;20049;-59
2021/07/12 18:53:04;;;;;;;12.10;8.40;;;;;;;0.01;0.00;59042.03;10320537;28;20079;-59
2021/07/12 18:58:03;;;;;;;11.07;7.45;;;;;;;0.01;0.00;59042.03;10319630;28;20045;-60
2021/07/12 19:03:02;;;;;;;9.80;7.50;;;;;;;0.01;0.00;59042.03;10320831;28;20040;-59
2021/07/12 19:08:03;;;;;;;12.98;7.32;;;;;;;0.01;0.00;59042.03;10320262;28;20056;-60
2021/07/12 19:13:02;;;;;;;11.30;7.32;;;;;;;0.01;0.00;59042.03;10318819;28;20056;-58
2021/07/12 19:18:01;;;;;;;12.05;7.20;;;;;;;0.01;0.00;59042.03;10283355;28;20461;-58
2021/07/12 19:23:00;;;;;;;7.95;7.13;;;;;;;0.01;0.00;59042.03;10296290;28;20067;-60
2021/07/12 19:28:02;;;;;;;18.85;7.60;;;;;;;0.01;0.00;59042.03;10302036;28;20072;-59
2021/07/12 19:33:01;;;;;;;15.52;8.40;;;;;;;0.01;0.00;59042.03;10301954;28;20079;-59
2021/07/12 19:38:00;;;;;;;12.23;10.07;;;;;;;0.01;0.00;59042.03;10298863;28;20073;-59
2021/07/12 19:43:01;;;;;;;13.45;9.63;;;;;;;0.01;0.00;59042.03;10310315;28;20045;-59
2021/07/12 19:48:01;;;;;;;10.10;7.18;;;;;;;0.01;0.00;59042.03;10310896;28;20118;-59
2021/07/12 19:52:59;;;;;;;7.72;5.93;;;;;;;0.01;0.00;59042.03;10314734;28;20079;-59
2021/07/12 19:58:00;;;;;;;13.27;6.43;;;;;;;0.01;0.00;59042.03;10284147;28;20069;-60
2021/07/12 20:03:04;;;;;;;7.88;6.95;;;;;;;0.01;0.00;59042.03;10299552;28;20099;-58
2021/07/12 20:08:04;;;;;;;6.90;6.20;;;;;;;0.01;0.00;59042.03;10300956;28;20075;-59
2021/07/12 20:13:05;;;;;;;7.10;5.80;;;;;;;0.01;0.00;59042.03;10304424;28;20060;-59
2021/07/12 20:18:04;;;;;;;11.45;6.93;;;;;;;0.01;0.00;59042.03;10311706;28;20067;-59
2021/07/12 20:23:06;;;;;;;8.35;6.25;;;;;;;0.01;0.00;59042.03;10305361;28;20075;-59
2021/07/12 20:28:08;;;;;;;8.17;7.37;;;;;;;0.01;0.00;59042.03;10313007;28;20079;-59
2021/07/12 20:33:07;;;;;;;9.38;6.07;;;;;;;0.01;0.00;59042.03;10291144;28;20455;-59
2021/07/12 20:38:06;;;;;;;7.13;6.43;;;;;;;0.01;0.00;59042.03;10280721;28;20048;-59
2021/07/12 20:43:06;;;;;;;9.13;6.15;;;;;;;0.01;0.00;59042.03;10302449;28;20075;-58
2021/07/12 20:48:06;;;;;;;7.63;5.97;;;;;;;0.01;0.00;59042.03;10301366;28;20096;-59
2021/07/12 20:53:05;;;;;;;8.05;6.30;;;;;;;0.01;0.00;59042.03;10303986;28;20076;-59
2021/07/12 20:58:15;;;;;;;9.38;7.60;;;;;;;0.01;0.00;59042.03;10296934;28;20076;-58
2021/07/12 21:03:15;;;;;;;7.22;6.50;;;;;;;0.01;0.00;59042.03;10290733;28;20318;-59
2021/07/12 21:08:14;;;;;;;8.07;5.82;;;;;;;0.01;0.00;59042.03;10300964;28;20044;-58
2021/07/12 21:13:14;;;;;;;7.05;6.35;;;;;;;0.01;0.00;59042.03;10278697;28;20474;-59
2021/07/12 21:18:13;;;;;;;8.52;6.05;;;;;;;0.01;0.00;59042.03;10296128;28;20048;-59
2021/07/12 21:23:13;;;;;;;7.53;6.07;;;;;;;0.01;0.00;59042.03;10297121;28;20056;-59
2021/07/12 21:28:17;;;;;;;9.50;5.82;;;;;;;0.01;0.00;59042.03;10277485;28;20068;-59
2021/07/12 21:33:15;;;;;;;9.02;5.93;;;;;;;0.01;0.00;59042.03;10315977;28;20076;-59
2021/07/12 21:38:16;;;;;;;7.90;6.85;;;;;;;0.01;0.00;59042.03;10316635;28;20028;-59
2021/07/12 21:43:14;;;;;;;7.57;5.55;;;;;;;0.01;0.00;59042.03;10315694;28;20052;-59
2021/07/12 21:48:13;;;;;;;9.77;6.00;;;;;;;0.01;0.00;59042.03;10320514;28;20059;-59
2021/07/12 21:53:12;;;;;;;5.95;5.40;;;;;;;0.01;0.00;59042.03;10323367;28;20529;-59
2021/07/12 21:58:12;;;;;;;14.93;6.13;;;;;;;0.01;0.00;59042.03;10323139;28;20055;-59
2021/07/12 22:03:11;;;;;;;7.32;6.55;;;;;;;0.01;0.00;59042.03;10323433;28;20502;-59
2021/07/12 22:08:10;;;;;;;7.72;6.03;;;;;;;0.01;0.00;59042.03;10323338;28;20049;-58
2021/07/12 22:13:08;;;;;;;11.45;6.10;;;;;;;0.01;0.00;59042.03;10322768;28;20090;-59
2021/07/12 22:18:09;;;;;;;9.70;6.40;;;;;;;0.01;0.00;59042.03;10322118;28;20178;-59
2021/07/12 22:23:12;;;;;;;8.38;6.38;;;;;;;0.01;0.00;59042.03;10323318;28;20414;-59
2021/07/12 22:28:11;;;;;;;6.83;6.17;;;;;;;0.01;0.00;59042.03;10323099;28;20067;-59
2021/07/12 22:33:16;;;;;;;7.25;6.35;;;;;;;0.01;0.00;59042.03;10322812;28;20405;-59
2021/07/12 22:38:15;;;;;;;10.13;6.32;;;;;;;0.01;0.00;59042.03;10322122;28;20506;-59
2021/07/12 22:43:14;;;;;;;9.85;6.53;;;;;;;0.01;0.00;59042.03;10320848;28;20529;-59
2021/07/12 22:48:14;;;;;;;9.38;6.20;;;;;;;0.01;0.00;59042.03;10321569;28;20083;-58
2021/07/12 22:53:16;;;;;;;10.10;6.30;;;;;;;0.01;0.00;59042.03;10321982;28;20450;-59
2021/07/12 22:58:16;;;;;;;7.22;6.53;;;;;;;0.01;0.00;59042.03;10320746;28;20521;-59
2021/07/12 23:03:16;;;;;;;7.15;6.18;;;;;;;0.01;0.00;59042.03;10321275;28;20101;-59
2021/07/12 23:08:16;;;;;;;8.15;7.35;;;;;;;0.01;0.00;59042.03;10321475;28;20073;-59
2021/07/12 23:13:15;;;;;;;9.90;6.35;;;;;;;0.01;0.00;59042.03;10320496;28;20087;-59
2021/07/12 23:18:13;;;;;;;9.40;7.25;;;;;;;0.01;0.00;59042.03;10320562;28;20450;-61
2021/07/12 23:23:13;;;;;;;9.30;6.70;;;;;;;0.01;0.00;59042.03;10321124;28;20072;-60
2021/07/12 23:28:12;;;;;;;12.80;6.43;;;;;;;0.01;0.00;59042.03;10320371;28;20059;-58
2021/07/12 23:33:11;;;;;;;7.97;6.20;;;;;;;0.01;0.00;59042.03;10318814;28;20076;-59
2021/07/12 23:38:10;;;;;;;8.93;6.82;;;;;;;0.01;0.00;59042.03;10319488;28;20518;-59